Search for airport 
image banner adimage banner adimage banner ad
image banner ad

CA26 - Hall Of Justice

Located in San Francisco, United States

ICAO - CA26, IATA -

Data provided by Airmate  

General information

Coordinates: N37°46'30" W122°24'15"
Elevation is 118 feet MSL.
Magnetic variation is 16° East
View others Airports in California

Operational data

Special qualification required
Current time UTC:
Current local time:
Weather at : KOAK - Metropolitan Oakland Intl ( 17 km )
METAR: KOAK 270553Z 34005KT 10SM FEW007 BKN200 15/12 A2997 RMK AO2 SLP147 T01500122 10200 20150 53012
TAF: KOAK 270525Z 2706/2812 31007KT P6SM FEW008 BKN100 FM270700 31008KT P6SM BKN008 BKN100 FM271000 30006KT P6SM VCSH OVC006 FM271630 30007KT P6SM SCT015 SCT100 SCT200 FM272100 30011KT P6SM SCT250 FM280500 31008KT P6SM FEW008 FM280900 30007KT P6SM BKN008
View NOTAMs / SUP AIP / TFR affecting this airport [VIEW]
Communications frequencies: [VIEW]

Runways:

Airport contact information

Address: San Francisco United States

Satellite view of CA26